createdAt,value
2023-12-04T00:00:43.431Z,100321.75
2023-12-04T00:03:11.591Z,100314.34
2023-12-04T00:05:47.062Z,100309.41
2023-12-04T00:08:25.525Z,100319.47
2023-12-04T00:10:56.591Z,100319.94
2023-12-04T00:13:26.214Z,100323.88
2023-12-04T00:16:14.613Z,100324.75
2023-12-04T00:18:45.381Z,100324.63
2023-12-04T00:21:17.158Z,100322.91
2023-12-04T00:23:46.020Z,100323.78
2023-12-04T00:26:22.896Z,100318.19
2023-12-04T00:29:00.515Z,100328.22
2023-12-04T00:31:44.158Z,100334.22
2023-12-04T00:34:22.821Z,100327.69
2023-12-04T00:36:56.337Z,100327.03
2023-12-04T00:39:29.576Z,100328.19
2023-12-04T00:41:58.218Z,100313.44
2023-12-04T00:44:27.936Z,100308.09
2023-12-04T00:47:12.194Z,100320.00
2023-12-04T00:49:42.856Z,100317.47
2023-12-04T00:52:13.404Z,100323.88
2023-12-04T00:54:42.429Z,100327.31
2023-12-04T00:59:55.630Z,100334.66
2023-12-04T01:02:28.565Z,100336.00
2023-12-04T01:04:56.979Z,100334.28
2023-12-04T01:07:28.543Z,100327.59
2023-12-04T01:10:03.250Z,100321.00
2023-12-04T01:12:35.572Z,100318.22
2023-12-04T01:15:07.743Z,100323.94
2023-12-04T01:17:49.750Z,100318.47
2023-12-04T01:20:18.243Z,100317.53
2023-12-04T01:22:53.654Z,100322.25
2023-12-04T01:25:23.120Z,100321.53
2023-12-04T01:27:53.703Z,100318.75
2023-12-04T01:30:26.426Z,100316.53
2023-12-04T01:33:01.606Z,100321.88
2023-12-04T01:35:33.365Z,100321.00
2023-12-04T01:38:03.373Z,100322.97
2023-12-04T01:40:34.470Z,100320.19
2023-12-04T01:43:06.890Z,100320.78
2023-12-04T01:45:38.480Z,100322.53
2023-12-04T01:48:21.416Z,100320.13
2023-12-04T01:50:55.881Z,100318.13
2023-12-04T01:53:26.347Z,100320.50
2023-12-04T01:55:59.181Z,100320.09
2023-12-04T01:58:31.920Z,100322.72
2023-12-04T02:01:07.123Z,100329.88
2023-12-04T02:03:43.151Z,100324.78
2023-12-04T02:06:12.946Z,100313.25
2023-12-04T02:08:44.769Z,100317.41
2023-12-04T02:11:13.254Z,100315.50
2023-12-04T02:13:45.125Z,100311.44
2023-12-04T02:16:17.554Z,100300.09
2023-12-04T02:18:56.345Z,100304.69
2023-12-04T02:21:26.615Z,100306.63
2023-12-04T02:24:10.561Z,100297.22
2023-12-04T02:26:47.294Z,100309.25
2023-12-04T02:29:22.050Z,100302.28
2023-12-04T02:32:03.225Z,100305.84
2023-12-04T02:34:37.617Z,100314.06
2023-12-04T02:37:08.037Z,100308.06
2023-12-04T02:39:46.050Z,100306.06
2023-12-04T02:42:18.691Z,100303.38
2023-12-04T02:44:49.616Z,100294.81
2023-12-04T02:47:27.321Z,100292.16
2023-12-04T02:49:59.754Z,100282.97
2023-12-04T02:52:28.405Z,100285.38
2023-12-04T02:55:02.606Z,100291.47
2023-12-04T02:57:34.303Z,100289.84
2023-12-04T03:00:08.132Z,100284.00
2023-12-04T03:02:44.806Z,100279.06
2023-12-04T03:05:14.371Z,100283.09
2023-12-04T03:10:31.444Z,100289.47
2023-12-04T03:13:04.841Z,100278.78
2023-12-04T03:15:35.749Z,100287.25
2023-12-04T03:18:08.211Z,100282.84
2023-12-04T03:20:46.875Z,100286.13
2023-12-04T03:23:17.773Z,100283.25
2023-12-04T03:25:59.366Z,100286.44
2023-12-04T03:28:30.307Z,100290.28
2023-12-04T03:31:04.037Z,100291.00
2023-12-04T03:33:34.681Z,100286.97
2023-12-04T03:36:09.142Z,100285.09
2023-12-04T03:38:40.591Z,100285.16
2023-12-04T03:41:17.336Z,100289.66
2023-12-04T03:43:48.640Z,100281.72
2023-12-04T03:46:19.435Z,100279.16
2023-12-04T03:48:49.312Z,100284.38
2023-12-04T03:51:26.569Z,100283.84
2023-12-04T03:53:57.561Z,100280.25
2023-12-04T03:56:32.205Z,100277.03
2023-12-04T03:59:03.577Z,100266.34
2023-12-04T04:01:37.633Z,100267.94
2023-12-04T04:04:19.581Z,100259.41
2023-12-04T04:06:53.962Z,100264.75
2023-12-04T04:09:29.058Z,100260.16
2023-12-04T04:12:08.638Z,100260.00
2023-12-04T04:14:38.471Z,100261.59
2023-12-04T04:17:06.565Z,100265.38
2023-12-04T04:19:35.318Z,100270.13
2023-12-04T04:22:06.205Z,100268.94
2023-12-04T04:24:40.184Z,100265.47
2023-12-04T04:27:14.032Z,100264.53
2023-12-04T04:29:51.740Z,100263.72
2023-12-04T04:32:25.811Z,100261.09
2023-12-04T04:34:56.547Z,100254.94
2023-12-04T04:37:27.783Z,100248.97
2023-12-04T04:40:04.390Z,100247.09
2023-12-04T04:42:43.400Z,100248.97
2023-12-04T04:45:13.404Z,100244.69
2023-12-04T04:47:58.288Z,100245.56
2023-12-04T04:50:35.339Z,100239.63
2023-12-04T04:53:04.535Z,100247.72
2023-12-04T04:55:47.092Z,100240.53
2023-12-04T04:58:26.077Z,100241.34
2023-12-04T05:00:55.626Z,100246.19
2023-12-04T05:03:26.717Z,100239.41
2023-12-04T05:06:02.914Z,100235.72
2023-12-04T05:08:39.511Z,100239.34
2023-12-04T05:11:08.703Z,100240.56
2023-12-04T05:13:46.692Z,100238.59
2023-12-04T05:16:16.621Z,100246.03
2023-12-04T05:18:50.459Z,100243.44
2023-12-04T05:21:22.295Z,100241.47
2023-12-04T05:23:51.597Z,100239.44
2023-12-04T05:26:21.015Z,100246.88
2023-12-04T05:28:55.515Z,100243.28
2023-12-04T05:31:27.728Z,100231.31
2023-12-04T05:34:19.541Z,100225.50
2023-12-04T05:36:54.138Z,100217.34
2023-12-04T05:39:24.938Z,100221.06
2023-12-04T05:41:54.436Z,100225.47
2023-12-04T05:44:33.218Z,100220.06
2023-12-04T05:47:03.594Z,100223.09
2023-12-04T05:49:34.528Z,100216.84
2023-12-04T05:52:09.042Z,100211.69
2023-12-04T05:54:40.775Z,100217.81
2023-12-04T05:57:10.954Z,100210.84
2023-12-04T05:59:48.667Z,100206.63
2023-12-04T06:02:22.924Z,100206.56
2023-12-04T06:04:59.750Z,100203.88
2023-12-04T06:07:32.548Z,100206.44
2023-12-04T06:10:09.793Z,100196.78
2023-12-04T06:12:39.900Z,100196.97
2023-12-04T06:15:21.532Z,100190.91
2023-12-04T06:17:52.501Z,100196.13
2023-12-04T06:20:27.196Z,100191.94
2023-12-04T06:23:02.666Z,100203.94
2023-12-04T06:25:42.472Z,100196.59
2023-12-04T06:28:14.176Z,100199.66
2023-12-04T06:31:02.196Z,100202.00
2023-12-04T06:33:39.233Z,100203.09
2023-12-04T06:36:09.792Z,100210.00
2023-12-04T06:38:42.131Z,100201.28
2023-12-04T06:41:16.055Z,100210.00
2023-12-04T06:43:53.700Z,100204.56
2023-12-04T06:46:26.671Z,100206.88
2023-12-04T06:49:07.344Z,100202.94
2023-12-04T06:51:49.701Z,100197.88
2023-12-04T06:54:20.148Z,100194.88
2023-12-04T06:56:50.685Z,100205.38
2023-12-04T06:59:25.883Z,100199.16
2023-12-04T07:02:00.920Z,100199.66
2023-12-04T07:04:29.794Z,100201.09
2023-12-04T07:07:06.018Z,100201.44
2023-12-04T07:09:38.213Z,100196.94
2023-12-04T07:12:09.623Z,100189.28
2023-12-04T07:14:46.813Z,100188.44
2023-12-04T07:17:17.777Z,100184.75
2023-12-04T07:19:52.984Z,100185.63
2023-12-04T07:22:26.228Z,100176.31
2023-12-04T07:25:15.809Z,100174.78
2023-12-04T07:27:47.002Z,100174.09
2023-12-04T07:30:19.490Z,100176.63
2023-12-04T07:33:06.366Z,100163.63
2023-12-04T07:35:44.308Z,100171.41
2023-12-04T07:38:16.465Z,100164.91
2023-12-04T07:40:48.306Z,100162.72
2023-12-04T07:43:17.915Z,100160.81
2023-12-04T07:45:55.014Z,100161.03
2023-12-04T07:48:28.567Z,100161.16
2023-12-04T07:51:01.405Z,100154.88
2023-12-04T07:53:31.067Z,100156.47
2023-12-04T07:56:04.499Z,100147.97
2023-12-04T07:58:41.971Z,100137.56
2023-12-04T08:01:16.389Z,100140.66
2023-12-04T08:03:50.470Z,100137.63
2023-12-04T08:06:21.999Z,100135.22
2023-12-04T08:09:03.612Z,100137.53
2023-12-04T08:11:39.993Z,100129.22
2023-12-04T08:14:13.396Z,100122.44
2023-12-04T08:16:42.489Z,100117.44
2023-12-04T08:19:14.702Z,100117.13
2023-12-04T08:21:44.152Z,100116.78
2023-12-04T08:24:22.932Z,100108.63
2023-12-04T08:26:57.719Z,100115.00
2023-12-04T08:29:35.802Z,100114.00
2023-12-04T08:32:12.540Z,100098.94
2023-12-04T08:34:56.608Z,100103.59
2023-12-04T08:37:29.455Z,100105.84
2023-12-04T08:39:59.110Z,100098.34
2023-12-04T08:42:36.314Z,100091.47
2023-12-04T08:45:16.938Z,100091.47
2023-12-04T08:47:51.140Z,100092.31
2023-12-04T08:50:23.624Z,100088.38
2023-12-04T08:52:54.412Z,100086.78
2023-12-04T08:55:23.026Z,100075.44
2023-12-04T08:58:00.555Z,100074.94
2023-12-04T09:00:39.843Z,100077.25
2023-12-04T09:03:18.460Z,100076.13
2023-12-04T09:06:09.754Z,100062.69
2023-12-04T09:11:26.239Z,100054.22
2023-12-04T09:13:59.190Z,100054.69
2023-12-04T09:16:29.973Z,100041.63
2023-12-04T09:18:59.255Z,100043.78
2023-12-04T09:21:31.478Z,100031.31
2023-12-04T09:24:06.505Z,100033.22
2023-12-04T09:26:37.113Z,100022.31
2023-12-04T09:29:10.697Z,100021.56
2023-12-04T09:31:39.559Z,100013.91
2023-12-04T09:34:09.268Z,100015.88
2023-12-04T09:36:42.048Z,100009.00
2023-12-04T09:39:17.766Z,100001.69
2023-12-04T09:41:52.145Z,99995.34
2023-12-04T09:44:23.368Z,99994.50
2023-12-04T09:46:51.728Z,99982.47
2023-12-04T09:49:26.891Z,99970.91
2023-12-04T09:51:59.985Z,99969.78
2023-12-04T09:54:32.578Z,99955.56
2023-12-04T09:57:02.050Z,99951.66
2023-12-04T09:59:34.641Z,99944.75
2023-12-04T10:02:08.792Z,99934.88
2023-12-04T10:04:45.649Z,99936.84
2023-12-04T10:07:22.564Z,99927.25
2023-12-04T10:09:56.777Z,99922.97
2023-12-04T10:12:28.487Z,99916.09
2023-12-04T10:15:13.115Z,99916.50
2023-12-04T10:17:53.695Z,99906.72
2023-12-04T10:20:26.733Z,99896.09
2023-12-04T10:23:02.695Z,99901.16
2023-12-04T10:25:44.624Z,99885.66
2023-12-04T10:28:16.120Z,99876.28
2023-12-04T10:30:48.017Z,99866.06
2023-12-04T10:33:17.086Z,99852.53
2023-12-04T10:35:50.529Z,99852.47
2023-12-04T10:38:20.938Z,99837.59
2023-12-04T10:40:52.780Z,99830.91
2023-12-04T10:43:23.169Z,99833.00
2023-12-04T10:45:52.912Z,99828.69
2023-12-04T10:48:28.103Z,99812.97
2023-12-04T10:50:59.456Z,99812.53
2023-12-04T10:53:31.561Z,99804.06
2023-12-04T10:56:11.731Z,99799.44
2023-12-04T10:58:42.356Z,99791.03
2023-12-04T11:01:15.938Z,99787.88
2023-12-04T11:03:47.546Z,99769.66
2023-12-04T11:06:21.538Z,99761.78
2023-12-04T11:08:53.365Z,99745.97
2023-12-04T11:11:28.129Z,99734.16
2023-12-04T11:14:01.663Z,99734.91
2023-12-04T11:16:38.712Z,99729.22
2023-12-04T11:19:21.731Z,99720.22
2023-12-04T11:21:52.887Z,99720.00
2023-12-04T11:24:27.629Z,99707.25
2023-12-04T11:26:57.781Z,99704.31
2023-12-04T11:29:38.907Z,99690.44
2023-12-04T11:32:08.123Z,99691.72
2023-12-04T11:34:38.127Z,99681.81
2023-12-04T11:40:00.491Z,99658.50
2023-12-04T11:42:39.838Z,99662.31
2023-12-04T11:45:16.652Z,99664.38
2023-12-04T11:48:07.921Z,99656.38
2023-12-04T11:50:45.852Z,99657.53
2023-12-04T11:53:19.310Z,99644.38
2023-12-04T11:56:00.493Z,99649.47
2023-12-04T11:58:31.346Z,99638.09
2023-12-04T12:01:03.047Z,99637.44
2023-12-04T12:03:39.452Z,99635.16
2023-12-04T12:06:22.521Z,99635.56
2023-12-04T12:08:52.715Z,99632.78
2023-12-04T12:11:29.820Z,99628.88
2023-12-04T12:14:06.766Z,99614.47
2023-12-04T12:16:42.458Z,99625.06
2023-12-04T12:19:20.267Z,99619.78
2023-12-04T12:21:50.555Z,99607.94
2023-12-04T12:24:20.458Z,99601.81
2023-12-04T12:26:52.621Z,99588.69
2023-12-04T12:29:26.507Z,99592.69
2023-12-04T12:31:57.485Z,99584.81
2023-12-04T12:34:28.715Z,99583.72
2023-12-04T12:36:56.985Z,99585.06
2023-12-04T12:39:27.928Z,99566.81
2023-12-04T12:42:00.500Z,99558.53
2023-12-04T12:44:31.482Z,99550.78
2023-12-04T12:47:02.162Z,99549.19
2023-12-04T12:49:39.183Z,99550.22
2023-12-04T12:52:16.766Z,99551.38
2023-12-04T12:54:46.831Z,99548.94
2023-12-04T12:57:20.245Z,99537.09
2023-12-04T12:59:53.268Z,99546.16
2023-12-04T13:02:24.211Z,99542.34
2023-12-04T13:04:58.426Z,99545.91
2023-12-04T13:07:27.302Z,99538.44
2023-12-04T13:09:56.326Z,99546.66
2023-12-04T13:12:31.674Z,99545.66
2023-12-04T13:15:03.238Z,99538.19
2023-12-04T13:17:32.999Z,99545.72
2023-12-04T13:20:02.063Z,99534.47
2023-12-04T13:22:33.957Z,99540.53
2023-12-04T13:25:13.812Z,99529.47
2023-12-04T13:27:56.063Z,99528.78
2023-12-04T13:30:26.292Z,99521.81
2023-12-04T13:32:57.378Z,99522.06
2023-12-04T13:35:37.461Z,99520.47
2023-12-04T13:38:15.296Z,99500.03
2023-12-04T13:40:56.173Z,99497.09
2023-12-04T13:43:52.431Z,99498.53
2023-12-04T13:46:22.156Z,99503.38
2023-12-04T13:48:53.975Z,99476.13
2023-12-04T13:51:31.665Z,99483.94
2023-12-04T13:54:21.899Z,99463.50
2023-12-04T13:57:05.165Z,99484.13
2023-12-04T13:59:41.068Z,99475.69
2023-12-04T14:02:16.109Z,99478.19
2023-12-04T14:04:45.933Z,99468.63
2023-12-04T14:07:18.043Z,99473.47
2023-12-04T14:09:49.608Z,99462.63
2023-12-04T14:12:19.364Z,99457.44
2023-12-04T14:15:00.005Z,99457.09
2023-12-04T14:17:29.123Z,99468.38
2023-12-04T14:20:01.189Z,99457.19
2023-12-04T14:22:32.103Z,99456.34
2023-12-04T14:25:09.856Z,99461.59
2023-12-04T14:27:41.644Z,99447.09
2023-12-04T14:30:17.188Z,99432.91
2023-12-04T14:32:48.379Z,99443.22
2023-12-04T14:35:29.904Z,99426.69
2023-12-04T14:38:00.218Z,99409.94
2023-12-04T14:40:31.731Z,99420.25
2023-12-04T14:43:05.661Z,99426.19
2023-12-04T14:45:38.278Z,99425.78
2023-12-04T14:48:19.922Z,99420.28
2023-12-04T14:51:02.417Z,99434.91
2023-12-04T14:53:48.637Z,99433.47
2023-12-04T14:56:34.325Z,99445.47
2023-12-04T14:59:20.410Z,99431.75
2023-12-04T15:02:11.945Z,99433.03
2023-12-04T15:05:14.027Z,99425.09
2023-12-04T15:08:04.410Z,99419.69
2023-12-04T15:13:46.589Z,99409.50
2023-12-04T15:16:31.036Z,99404.84
2023-12-04T15:19:36.758Z,99401.47
2023-12-04T15:22:14.026Z,99398.69
2023-12-04T15:24:42.336Z,99407.75
2023-12-04T15:27:16.074Z,99402.97
2023-12-04T15:29:47.081Z,99414.09
2023-12-04T15:32:22.519Z,99405.44
2023-12-04T15:35:10.905Z,99387.66
2023-12-04T15:37:43.578Z,99390.47
2023-12-04T15:40:20.866Z,99398.25
2023-12-04T15:42:52.820Z,99405.53
2023-12-04T15:45:23.353Z,99398.38
2023-12-04T15:47:53.547Z,99386.84
2023-12-04T15:50:26.099Z,99401.13
2023-12-04T15:52:57.170Z,99405.59
2023-12-04T15:55:27.480Z,99395.03
2023-12-04T15:57:59.441Z,99401.88
2023-12-04T16:00:34.936Z,99385.69
2023-12-04T16:03:11.895Z,99392.69
2023-12-04T16:05:46.601Z,99390.16
2023-12-04T16:08:17.427Z,99403.34
2023-12-04T16:10:47.745Z,99423.97
2023-12-04T16:13:17.480Z,99406.91
2023-12-04T16:15:59.101Z,99400.63
2023-12-04T16:18:30.449Z,99400.88
2023-12-04T16:21:02.770Z,99396.38
2023-12-04T16:23:39.472Z,99397.56
2023-12-04T16:26:12.994Z,99408.00
2023-12-04T16:28:44.241Z,99404.34
2023-12-04T16:31:25.536Z,99387.00
2023-12-04T16:33:56.761Z,99399.19
2023-12-04T16:36:35.539Z,99381.22
2023-12-04T16:39:06.802Z,99379.63
2023-12-04T16:41:41.121Z,99365.31
2023-12-04T16:44:17.464Z,99363.38
2023-12-04T16:46:50.803Z,99362.84
2023-12-04T16:49:21.404Z,99355.47
2023-12-04T16:52:16.278Z,99353.03
2023-12-04T16:54:52.930Z,99367.44
2023-12-04T16:57:31.432Z,99358.81
2023-12-04T17:00:04.757Z,99364.38
2023-12-04T17:02:35.775Z,99359.63
2023-12-04T17:05:10.076Z,99355.56
2023-12-04T17:07:44.538Z,99355.06
2023-12-04T17:10:19.248Z,99353.13
2023-12-04T17:12:49.793Z,99350.53
2023-12-04T17:15:19.752Z,99339.50
2023-12-04T17:17:57.256Z,99349.78
2023-12-04T17:20:26.736Z,99352.28
2023-12-04T17:23:09.031Z,99355.28
2023-12-04T17:25:46.012Z,99368.19
2023-12-04T17:28:16.545Z,99356.03
2023-12-04T17:30:48.341Z,99362.91
2023-12-04T17:33:19.242Z,99372.69
2023-12-04T17:35:53.484Z,99378.84
2023-12-04T17:38:35.411Z,99377.34
2023-12-04T17:41:09.973Z,99374.53
2023-12-04T17:43:40.501Z,99364.88
2023-12-04T17:46:12.529Z,99359.28
2023-12-04T17:48:45.281Z,99365.66
2023-12-04T17:51:19.654Z,99343.91
2023-12-04T17:53:57.576Z,99353.81
2023-12-04T17:56:39.957Z,99355.16
2023-12-04T17:59:20.287Z,99338.00
2023-12-04T18:01:54.791Z,99344.06
2023-12-04T18:04:25.979Z,99350.53
2023-12-04T18:07:06.641Z,99341.44
2023-12-04T18:09:45.773Z,99330.19
2023-12-04T18:12:19.326Z,99347.59
2023-12-04T18:15:02.550Z,99339.56
2023-12-04T18:17:39.026Z,99340.34
2023-12-04T18:20:08.982Z,99337.78
2023-12-04T18:22:43.772Z,99344.84
2023-12-04T18:25:32.562Z,99336.13
2023-12-04T18:28:04.515Z,99354.47
2023-12-04T18:30:40.202Z,99352.34
2023-12-04T18:33:15.982Z,99348.75
2023-12-04T18:36:00.041Z,99350.19
2023-12-04T18:38:38.972Z,99344.41
2023-12-04T18:41:15.197Z,99341.09
2023-12-04T18:43:53.351Z,99342.69
2023-12-04T18:46:30.485Z,99323.66
2023-12-04T18:49:00.273Z,99330.19
2023-12-04T18:51:38.978Z,99326.94
2023-12-04T18:54:10.297Z,99334.06
2023-12-04T18:56:48.758Z,99323.00
2023-12-04T18:59:19.540Z,99322.09
2023-12-04T19:01:54.780Z,99319.03
2023-12-04T19:04:26.568Z,99298.03
2023-12-04T19:07:02.746Z,99299.34
2023-12-04T19:09:34.699Z,99300.22
2023-12-04T19:12:14.847Z,99301.56
2023-12-04T19:14:55.882Z,99297.63
2023-12-04T19:17:32.072Z,99293.41
2023-12-04T19:20:11.369Z,99307.91
2023-12-04T19:25:49.256Z,99310.06
2023-12-04T19:28:42.533Z,99308.13
2023-12-04T19:31:21.610Z,99318.78
2023-12-04T19:34:01.737Z,99307.22
2023-12-04T19:36:44.074Z,99301.06
2023-12-04T19:39:28.066Z,99294.28
2023-12-04T19:42:11.823Z,99292.25
2023-12-04T19:44:51.308Z,99294.41
2023-12-04T19:47:36.201Z,99276.47
2023-12-04T19:50:15.000Z,99302.69
2023-12-04T19:52:51.347Z,99286.69
2023-12-04T19:55:25.753Z,99284.69
2023-12-04T19:58:02.315Z,99290.78
2023-12-04T20:00:47.042Z,99290.34
2023-12-04T20:03:32.999Z,99298.22
2023-12-04T20:06:05.533Z,99284.59
2023-12-04T20:08:55.944Z,99280.88
2023-12-04T20:11:29.754Z,99281.97
2023-12-04T20:14:17.668Z,99278.44
2023-12-04T20:16:56.158Z,99263.94
2023-12-04T20:19:31.709Z,99271.78
2023-12-04T20:22:14.751Z,99275.47
2023-12-04T20:24:49.254Z,99262.94
2023-12-04T20:27:39.125Z,99262.44
2023-12-04T20:30:16.199Z,99253.28
2023-12-04T20:33:04.068Z,99269.09
2023-12-04T20:35:40.157Z,99266.31
2023-12-04T20:38:21.056Z,99259.94
2023-12-04T20:41:01.258Z,99258.34
2023-12-04T20:43:40.413Z,99247.31
2023-12-04T20:46:17.660Z,99261.50
2023-12-04T20:48:54.562Z,99249.19
2023-12-04T20:51:33.460Z,99253.38
2023-12-04T20:54:16.198Z,99259.00
2023-12-04T20:56:50.202Z,99261.16
2023-12-04T20:59:20.227Z,99240.28
2023-12-04T21:01:53.821Z,99246.66
2023-12-04T21:04:36.692Z,99256.00
2023-12-04T21:07:15.151Z,99259.13
2023-12-04T21:09:54.469Z,99255.59
2023-12-04T21:12:37.310Z,99257.06
2023-12-04T21:15:14.307Z,99256.28
2023-12-04T21:17:46.916Z,99250.28
2023-12-04T21:20:29.540Z,99249.03
2023-12-04T21:23:02.383Z,99222.16
2023-12-04T21:25:34.526Z,99233.25
2023-12-04T21:28:07.143Z,99250.25
2023-12-04T21:30:45.847Z,99249.63
2023-12-04T21:33:26.582Z,99246.75
2023-12-04T21:36:20.262Z,99254.19
2023-12-04T21:38:54.829Z,99258.63
2023-12-04T21:41:40.670Z,99258.28
2023-12-04T21:44:25.653Z,99256.00
2023-12-04T21:46:57.204Z,99247.31
2023-12-04T21:49:27.652Z,99247.34
2023-12-04T21:52:01.445Z,99248.13
2023-12-04T21:54:33.211Z,99233.94
2023-12-04T21:57:11.390Z,99242.72
2023-12-04T22:00:01.862Z,99241.19
2023-12-04T22:02:37.294Z,99237.47
2023-12-04T22:05:06.699Z,99235.56
2023-12-04T22:07:49.060Z,99243.03
2023-12-04T22:10:17.616Z,99235.47
2023-12-04T22:12:51.128Z,99244.75
2023-12-04T22:15:19.950Z,99238.31
2023-12-04T22:17:55.481Z,99232.13
2023-12-04T22:20:25.853Z,99234.41
2023-12-04T22:23:14.040Z,99233.78
2023-12-04T22:25:43.562Z,99227.16
2023-12-04T22:28:16.134Z,99233.25
2023-12-04T22:30:53.887Z,99225.81
2023-12-04T22:33:28.214Z,99218.63
2023-12-04T22:36:00.793Z,99214.31
2023-12-04T22:38:43.222Z,99207.00
2023-12-04T22:41:22.994Z,99209.59
2023-12-04T22:44:04.183Z,99203.31
2023-12-04T22:46:49.729Z,99200.69
2023-12-04T22:49:30.377Z,99201.72
2023-12-04T22:52:02.195Z,99201.13
2023-12-04T22:54:45.056Z,99196.66
2023-12-04T22:59:59.685Z,99191.75
2023-12-04T23:02:31.650Z,99183.16
2023-12-04T23:05:08.300Z,99192.34
2023-12-04T23:07:43.256Z,99190.81
2023-12-04T23:10:23.797Z,99196.94
2023-12-04T23:13:01.330Z,99199.53
2023-12-04T23:15:41.451Z,99200.59
2023-12-04T23:18:11.034Z,99200.19
2023-12-04T23:20:41.420Z,99201.28
2023-12-04T23:23:09.441Z,99196.63
2023-12-04T23:25:55.172Z,99203.66
2023-12-04T23:28:25.948Z,99199.25
2023-12-04T23:30:54.759Z,99185.13
2023-12-04T23:33:29.559Z,99176.75
2023-12-04T23:36:06.043Z,99180.78
2023-12-04T23:38:38.679Z,99164.69
2023-12-04T23:41:25.272Z,99177.09
2023-12-04T23:43:56.447Z,99171.34
2023-12-04T23:46:29.753Z,99175.66
2023-12-04T23:49:06.083Z,99175.94
2023-12-04T23:51:41.194Z,99177.34
2023-12-04T23:54:22.208Z,99180.78
2023-12-04T23:57:05.816Z,99179.81
2023-12-04T23:59:53.008Z,99183.72
